Latest Weather Observations for Mawson*

IDT60801

Issued at 1:02 pm EST Wednesday 28 September 2016 (issued every 30 minutes, with the page automatically refreshed every 10 minutes)

About weather observations | Map of weather stations | Latest weather observations for ANT | Other Formats
Station Details ID: 300001 Name: MAWSON Lat: -67.60 Lon: 62.88 Height: 9.9 m
Data from the previous 72 hours. | See also: Recent months at Mawson*
Date/Time
EST
Temp
°C
App
Temp
°C
Dew
Point
°C
Rel
Hum
%
Delta-T
°C
Wind Press
QNH
hPa
Press
MSL
hPa
Rain since
9am
mm
Dir  Spd
km/h
Gust
km/h
Spd
kts
Gust
kts
28/01:00pm -4.0 -21.0 -24.2 19 - SE 70 93 38 50 983.7 - -
28/12:33pm -4.1 -20.5 -23.1 21 - SE 67 87 36 47 984.2 - -
28/12:30pm -4.1 -20.5 -23.7 20 - SE 67 83 36 45 984.2 - -
28/12:00pm -4.3 -20.7 -23.3 21 - SE 67 87 36 47 984.5 - -
28/11:38am -4.2 -21.2 -23.2 21 - SE 70 91 38 49 984.7 - -
28/11:30am -4.7 -21.1 -22.6 23 - SE 67 83 36 45 985.0 - -
28/11:00am -4.3 -21.1 -24.4 19 - SE 69 91 37 49 985.0 - -
28/10:30am -4.7 -21.7 -23.1 22 - SE 70 91 38 49 985.3 - -
28/10:00am -5.2 -21.2 -23.5 22 - SE 65 93 35 50 985.4 985.6 -
28/09:30am -5.8 -22.2 -24.0 22 - SE 67 91 36 49 985.9 - -
28/09:00am -5.3 -21.7 -24.1 21 - SE 67 91 36 49 986.2 - -
28/08:30am -6.7 -23.7 -22.5 27 - ESE 70 100 38 54 986.6 - -
28/08:00am -6.9 -25.7 -21.5 30 - SE 80 98 43 53 986.8 - -
28/07:30am -6.3 -25.2 -25.0 21 - SE 80 104 43 56 986.8 - -
28/07:00am -5.7 -24.2 -24.0 22 - SE 78 98 42 53 986.4 986.6 -
28/06:30am -5.8 -24.3 -23.1 24 - SE 78 100 42 54 986.6 - -
28/06:00am -5.2 -24.1 -25.2 19 - SE 80 104 43 56 986.2 - -
28/05:30am -5.3 -23.8 -22.6 24 - SE 78 104 42 56 987.0 - -
28/05:06am -5.6 -24.9 -24.9 20 - SE 82 100 44 54 987.1 - -
28/05:00am -5.8 -25.3 -24.6 21 - SE 83 100 45 54 987.0 - -
28/04:38am -6.4 -25.8 -22.7 26 - SE 83 102 45 55 987.4 - -
28/04:30am -6.5 -26.4 -23.7 24 - SE 85 102 46 55 987.8 - -
28/04:06am -7.4 -28.4 -22.7 28 - SE 91 109 49 59 988.3 - -
28/04:00am -7.9 -29.2 -22.0 31 - SE 93 109 50 59 987.8 988.0 -
28/03:30am -7.1 -26.6 -24.2 24 - ESE 83 117 45 63 988.8 - -
28/03:26am -7.9 -29.6 -23.2 28 - ESE 95 117 51 63 989.1 - -
28/03:25am -7.5 -30.5 -22.4 29 - SE 102 117 55 63 988.4 - -
28/03:23am -6.9 -25.4 -22.7 27 - ESE 78 119 42 64 988.6 - -
28/03:07am -7.7 -26.6 -23.0 28 - ESE 80 100 43 54 989.2 - -
28/03:00am -7.5 -27.7 -22.4 29 - SE 87 100 47 54 988.9 - -
28/02:30am -6.5 -25.8 -23.2 25 - ESE 82 100 44 54 989.4 - -
28/02:00am -8.1 -27.5 -21.8 32 - SE 83 102 45 55 990.3 - -
28/01:30am -7.4 -25.1 -21.9 30 - ESE 74 93 40 50 990.9 - -
28/01:02am -6.9 -25.0 -23.1 26 - SE 76 95 41 51 990.6 - -
28/01:00am -7.1 -25.2 -22.9 27 - SE 76 89 41 48 991.0 991.2 -
28/12:43am -7.0 -26.3 -23.6 25 - SE 82 104 44 56 990.7 - -
28/12:30am -7.0 -25.2 -24.1 24 - SE 76 93 41 50 991.0 - -
28/12:00am -6.5 -23.9 -23.7 24 - SE 72 95 39 51 991.3 - -
 
Date/Time
EST
Temp
°C
App
Temp
°C
Dew
Point
°C
Rel
Hum
%
Delta-T
°C
Wind Press
QNH
hPa
Press
MSL
hPa
Rain since
9am
mm
Dir  Spd
km/h
Gust
km/h
Spd
kts
Gust
kts
27/11:30pm -7.4 -24.4 -23.6 26 - SE 70 91 38 49 991.3 - -
27/11:00pm -7.6 -26.1 -22.5 29 - SE 78 96 42 52 992.1 - -
27/10:52pm -7.6 -25.7 -23.3 27 - SE 76 95 41 51 992.3 - -
27/10:30pm -7.9 -27.1 -22.4 30 - SE 82 96 44 52 992.5 - -
27/10:07pm -7.6 -26.9 -23.3 27 - SE 82 100 44 54 992.6 - -
27/10:00pm -7.7 -27.2 -23.0 28 - SE 83 100 45 54 992.6 992.8 -
27/09:30pm -7.3 -26.6 -24.4 24 - SE 82 104 44 56 992.4 - -
27/09:02pm -7.4 -26.3 -23.1 27 - SE 80 100 43 54 992.7 - -
27/09:00pm -7.0 -25.9 -25.1 22 - SE 80 93 43 50 992.6 - -
27/08:30pm -7.3 -26.2 -23.9 25 - SE 80 98 43 53 993.0 - -
27/08:28pm -6.9 -25.8 -24.5 23 - SE 80 98 43 53 992.6 - -
27/08:00pm -7.5 -27.0 -23.6 26 - SE 83 98 45 53 992.4 - -
27/07:33pm -7.8 -27.1 -23.5 27 - SE 82 102 44 55 992.9 - -
27/07:30pm -7.7 -27.0 -24.7 24 - SE 82 98 44 53 993.0 - -
27/07:03pm -9.0 -27.9 -22.3 33 - ESE 80 98 43 53 993.9 - -
27/07:00pm -8.7 -28.2 -23.1 30 - SE 83 98 45 53 993.7 993.9 -
27/06:30pm -9.1 -28.3 -22.4 33 - SE 82 100 44 54 993.7 - -
27/06:21pm -9.0 -28.2 -22.6 32 - ESE 82 100 44 54 993.9 - -
27/06:00pm -9.4 -28.2 -21.7 36 - ESE 80 96 43 52 994.0 - -
27/05:54pm -9.1 -27.6 -23.4 30 - ESE 78 96 42 52 993.8 - -
27/05:30pm -9.7 -29.5 -21.6 37 - SE 85 98 46 53 994.1 - -
27/05:06pm -9.6 -29.0 -21.8 36 - SE 83 104 45 56 994.2 - -
27/05:00pm -9.5 -28.7 -22.4 34 - ESE 82 93 44 50 994.0 - -
27/04:30pm -10.1 -29.3 -22.0 37 - ESE 82 91 44 49 994.6 - -
27/04:00pm -9.8 -29.1 -23.0 33 - SE 82 95 44 51 994.6 994.8 -
27/03:30pm -10.1 -29.0 -23.3 33 - SE 80 89 43 48 994.7 - -
27/03:00pm -10.5 -30.7 -23.6 33 - SE 87 100 47 54 994.5 - -
27/02:30pm -10.9 -31.5 -24.0 33 - ESE 89 102 48 55 994.5 - -
27/02:00pm -10.7 -31.7 -24.5 31 - SE 91 104 49 56 994.1 - -
27/01:30pm -11.1 -32.5 -24.5 32 - SE 93 107 50 58 993.9 - -
27/01:00pm -11.4 -31.3 -23.8 35 - ESE 85 96 46 52 994.5 994.7 -
27/12:30pm -11.5 -31.0 -23.5 36 - ESE 83 95 45 51 994.7 - -
27/12:00pm -11.9 -32.1 -23.6 37 - SE 87 102 47 55 994.3 - -
27/11:30am -11.8 -31.7 -24.1 35 - SE 85 96 46 52 994.5 - -
27/11:00am -11.5 -31.8 -25.2 31 - SE 87 98 47 53 994.2 - -
27/10:30am -11.7 -31.6 -24.7 33 - SE 85 96 46 52 994.5 - -
27/10:00am -12.1 -32.4 -25.0 33 - SE 87 96 47 52 994.3 994.5 -
27/09:30am -12.4 -33.0 -24.7 35 - SE 89 100 48 54 994.0 - -
27/09:00am -13.0 -32.9 -24.0 39 - SE 85 96 46 52 994.4 - -
27/08:30am -13.1 -33.4 -24.7 37 - SE 87 98 47 53 994.8 - -
27/08:00am -12.4 -31.9 -26.7 29 - SE 83 95 45 51 994.7 - -
27/07:30am -12.5 -32.4 -26.1 31 - SE 85 96 46 52 994.9 - -
27/07:00am -12.7 -33.4 -26.6 30 - SE 89 106 48 57 994.7 994.9 -
27/06:30am -12.8 -33.9 -26.7 30 - SE 91 100 49 54 994.7 - -
27/06:00am -13.6 -33.9 -26.4 33 - SE 87 102 47 55 994.8 - -
27/05:30am -13.7 -33.6 -26.5 33 - SE 85 96 46 52 994.9 - -
27/05:00am -13.7 -33.1 -26.8 32 - SE 82 96 44 52 995.6 - -
27/04:30am -13.7 -33.2 -27.1 31 - SE 83 95 45 51 995.7 - -
27/04:00am -14.0 -33.4 -27.4 31 - SE 82 100 44 54 995.6 995.8 -
27/03:41am -14.1 -33.1 -27.5 31 - SE 80 100 43 54 995.4 - -
27/03:30am -14.3 -32.9 -27.0 33 - SE 78 93 42 50 995.6 - -
27/03:00am -14.0 -32.6 -28.1 29 - SE 78 98 42 53 996.1 - -
27/02:50am -14.3 -32.5 -27.0 33 - SE 76 95 41 51 996.0 - -
27/02:30am -14.7 -33.3 -26.7 35 - SE 78 91 42 49 996.1 - -
27/02:07am -15.0 -33.2 -27.6 33 - SE 76 95 41 51 996.6 - -
27/02:00am -15.5 -33.0 -26.8 37 - SE 72 89 39 48 996.9 - -
27/01:39am -15.6 -33.4 -27.5 35 - ESE 74 93 40 50 996.3 - -
27/01:30am -15.8 -32.9 -27.4 36 - SE 70 85 38 46 997.0 - -
27/01:00am -15.4 -33.6 -28.3 32 - ESE 76 91 41 49 996.7 996.9 -
27/12:30am -15.9 -32.4 -28.4 33 - ESE 67 87 36 47 996.9 - -
27/12:27am -16.0 -32.2 -28.2 34 - ESE 65 83 35 45 997.3 - -
27/12:12am -16.2 -31.6 -27.8 36 - ESE 61 72 33 39 997.9 - -
27/12:09am -16.2 -28.2 -27.5 37 - ESE 43 61 23 33 998.1 - -
27/12:00am -16.3 -32.8 -26.7 40 - ESE 67 95 36 51 997.6 - -
 
Date/Time
EST
Temp
°C
App
Temp
°C
Dew
Point
°C
Rel
Hum
%
Delta-T
°C
Wind Press
QNH
hPa
Press
MSL
hPa
Rain since
9am
mm
Dir  Spd
km/h
Gust
km/h
Spd
kts
Gust
kts
26/11:48pm -16.2 -30.6 -26.3 41 - SE 56 96 30 52 997.0 - -
26/11:47pm -16.4 -28.9 -27.4 38 - SE 46 74 25 40 997.8 - -
26/11:30pm -15.7 -34.3 -28.9 31 - ESE 78 102 42 55 997.4 - -
26/11:00pm -15.6 -33.1 -29.2 30 - ESE 72 91 39 49 997.5 - -
26/10:53pm -15.9 -32.1 -29.1 31 - ESE 65 89 35 48 998.0 - -
26/10:49pm -15.8 -31.2 -29.0 31 - ESE 61 76 33 41 998.1 - -
26/10:30pm -15.8 -26.6 -28.6 32 - E 37 63 20 34 999.2 - -
26/10:24pm -15.9 -26.4 -28.4 33 - ESE 35 54 19 29 999.0 - -
26/10:20pm -16.3 -30.7 -27.8 36 - ESE 56 74 30 40 998.8 - -
26/10:10pm -15.8 -32.0 -28.6 32 - ESE 65 74 35 40 998.0 - -
26/10:00pm -16.4 -28.4 -28.9 33 - ESE 43 80 23 43 998.8 999.0 -
26/09:58pm -16.7 -27.9 -27.6 38 - ESE 39 80 21 43 998.7 - -
26/09:37pm -17.4 -27.8 -27.7 40 - E 35 54 19 29 999.9 - -
26/09:30pm -17.6 -29.2 -28.4 38 - E 41 54 22 29 1000.3 - -
26/09:29pm -17.6 -28.8 -28.2 39 - E 39 46 21 25 1000.4 - -
26/09:00pm -18.2 -27.7 -27.9 42 - ENE 30 41 16 22 1001.0 - -
26/08:48pm -18.4 -28.8 -27.4 45 - E 35 54 19 29 1000.9 - -
26/08:30pm -18.4 -29.6 -27.1 46 - E 39 50 21 27 1001.0 - -
26/08:03pm -17.4 -29.0 -29.4 34 - E 41 59 22 32 1000.7 - -
26/08:00pm -17.3 -28.9 -29.3 34 - E 41 56 22 30 1000.8 - -
26/07:42pm -17.4 -27.5 -28.8 36 - ENE 33 54 18 29 1000.6 - -
26/07:30pm -17.1 -27.0 -29.2 34 - ENE 32 39 17 21 1001.3 - -
26/07:09pm -17.2 -27.7 -28.6 36 - ENE 35 41 19 22 1001.5 - -
26/07:00pm -16.9 -29.1 -28.4 36 - E 44 59 24 32 1001.2 1001.4 -
26/06:45pm -17.1 -29.1 -28.3 37 - ESE 43 56 23 30 1000.3 - -
26/06:30pm -17.3 -33.5 -29.3 34 - ESE 65 83 35 45 1000.2 - -
26/06:00pm -17.9 -33.7 -29.3 36 - ESE 63 89 34 48 1000.2 - -
26/05:44pm -18.4 -35.3 -28.9 39 - ESE 69 87 37 47 1000.4 - -
26/05:30pm -18.2 -35.1 -29.8 35 - ESE 69 83 37 45 1000.6 - -
26/05:25pm -18.2 -35.1 -29.5 36 - ESE 69 74 37 40 1000.9 - -
26/05:16pm -18.4 -31.7 -29.7 36 - ESE 50 69 27 37 1001.2 - -
26/05:15pm -18.3 -31.6 -29.9 35 - ESE 50 67 27 36 1001.3 - -
26/05:04pm -18.3 -27.4 -29.3 37 - ESE 28 48 15 26 1002.0 - -
26/05:00pm -18.2 -27.0 -31.5 30 - ESE 26 41 14 22 1002.2 - -
26/04:30pm -18.7 -28.6 -29.4 38 - E 32 43 17 23 1003.2 - -
26/04:00pm -17.7 -29.3 -31.4 29 - ESE 41 54 22 29 1002.7 1002.9 -
26/03:39pm -18.4 -31.7 -31.0 32 - ESE 50 69 27 37 1002.3 - -
26/03:30pm -18.3 -32.4 -30.2 34 - SE 54 65 29 35 1002.0 - -
26/03:00pm -18.3 -33.0 -30.2 34 - SE 57 69 31 37 1001.6 - -
26/02:30pm -17.8 -30.0 -31.1 30 - SE 44 57 24 31 1000.9 - -
26/02:23pm -19.3 -29.8 -30.8 35 - SSE 35 54 19 29 1001.3 - -
26/02:00pm -20.0 -30.1 -31.8 34 - SSE 33 41 18 22 1001.7 - -
26/01:30pm -20.0 -33.7 -32.4 32 - SE 52 59 28 32 1001.7 - -
26/01:00pm -20.3 -32.9 -32.3 33 - SE 46 59 25 32 1001.9 1002.1 -
26/12:30pm -19.9 -31.6 -33.7 28 - SE 41 50 22 27 1001.7 - -
26/12:00pm -21.4 -33.1 -32.4 36 - SE 41 50 22 27 1002.1 - -
26/11:30am -21.7 -33.0 -33.0 35 - SSE 39 43 21 23 1001.6 - -
26/11:00am -22.1 -33.8 -33.3 36 - SSE 41 46 22 25 1001.8 - -
26/10:30am -22.6 -34.6 -33.2 37 - SSE 43 48 23 26 1001.3 - -
26/10:00am -22.4 -32.0 -33.9 34 - SSE 30 37 16 20 1001.9 1002.1 -
26/09:30am -22.2 -31.8 -33.1 37 - SE 30 37 16 20 1002.2 - -
26/09:08am -23.5 -31.2 -34.6 35 - ESE 20 28 11 15 1001.9 - -
26/09:00am -23.6 -35.7 -33.9 38 - SSE 43 50 23 27 1001.7 - -
26/08:30am -23.0 -33.5 -33.6 37 - SSE 35 44 19 24 1001.8 - -
26/08:00am -22.7 -31.9 -33.3 37 - SE 28 39 15 21 1001.6 - -
26/07:41am -23.7 -32.9 -33.7 39 - SE 28 37 15 20 1001.6 - -
26/07:30am -23.4 -29.4 -34.0 37 - N 11 19 6 10 1002.1 - -
26/07:00am -23.7 -30.1 -34.2 37 - SSE 13 22 7 12 1002.3 1002.5 -
26/06:30am -22.3 -28.7 -34.7 32 - SE 13 24 7 13 1002.4 - -
26/06:00am -21.9 -27.9 -34.4 31 - ESE 11 15 6 8 1002.3 - -
26/05:30am -21.9 -27.1 -34.1 32 - SSW 7 19 4 10 1001.8 - -
26/05:00am -22.9 -28.1 -33.0 39 - WNW 7 11 4 6 1002.0 - -
26/04:30am -23.7 -32.9 -33.4 41 - SE 28 41 15 22 1001.3 - -
26/04:00am -23.4 -30.5 -32.4 43 - E 17 26 9 14 1001.0 1001.2 -
26/03:42am -23.3 -32.5 -32.8 41 - SSE 28 39 15 21 1001.0 - -
26/03:30am -22.1 -27.3 -32.8 37 - NW 7 13 4 7 1001.5 - -
26/03:00am -22.4 -28.0 -30.8 46 - WNW 9 15 5 8 1001.6 - -
26/02:30am -22.9 -27.9 -29.6 54 - E 6 11 3 6 1001.5 - -
26/02:00am -22.9 -27.9 -29.6 54 - WNW 6 7 3 4 1001.4 - -
26/01:30am -22.5 -28.0 -30.5 48 - WSW 9 9 5 5 1001.5 - -
26/01:00am -22.4 -28.3 -30.4 48 - NE 11 11 6 6 1001.2 1001.4 -
26/12:30am -22.1 -28.0 -29.4 52 - E 11 17 6 9 1000.9 - -
26/12:00am -22.2 -27.7 -28.0 59 - ENE 9 11 5 6 1000.7 - -
 
Date/Time
EST
Temp
°C
App
Temp
°C
Dew
Point
°C
Rel
Hum
%
Delta-T
°C
Wind Press
QNH
hPa
Press
MSL
hPa
Rain since
9am
mm
Dir  Spd
km/h
Gust
km/h
Spd
kts
Gust
kts
25/11:30pm -21.5 -27.4 -28.5 53 - SW 11 13 6 7 1000.5 - -
25/11:00pm -20.9 -26.0 -28.3 51 - WSW 7 9 4 5 1000.5 - -
25/10:30pm -20.1 -25.6 -28.2 48 - WSW 9 11 5 6 1000.5 - -
25/10:00pm -20.0 -25.9 -29.3 43 - W 11 13 6 7 1000.4 1000.6 -
25/09:30pm -19.9 -25.0 -28.5 46 - W 7 9 4 5 1000.4 - -
25/09:00pm -19.7 -24.9 -30.1 39 - W 7 9 4 5 1000.4 - -
25/08:30pm -20.2 -25.2 -33.2 30 - SW 6 7 3 4 1000.3 - -
25/08:00pm -19.5 -24.7 -31.0 35 - SW 7 9 4 5 1000.4 - -
25/07:30pm -19.8 -24.8 -30.7 37 - WSW 6 7 3 4 1000.4 - -
25/07:00pm -20.2 -25.4 -30.3 40 - SW 7 9 4 5 1000.4 1000.6 -
25/06:30pm -20.2 -26.1 -29.7 42 - WSW 11 13 6 7 1000.4 - -
25/06:00pm -21.2 -27.1 -29.5 47 - W 11 15 6 8 1000.3 - -
25/05:30pm -20.5 -25.7 -31.6 36 - WNW 7 9 4 5 1000.3 - -

Other Formats:

Comma delimited format used in spreadsheet applications
http://www.bom.gov.au/fwo/IDT60803/IDT60803.89564.axf

JavaScript Object Notation format (JSON) in row-major order
http://www.bom.gov.au/fwo/IDT60803/IDT60803.89564.json